sensor_id;sensor_type;location;lat;lon;timestamp;pressure;altitude;pressure_sealevel;temperature;humidity
43125;BME280;49182;50.788;7.318;2022-08-23T00:02:10;100592.44;;;17.99;66.20
43125;BME280;49182;50.788;7.318;2022-08-23T00:04:50;100601.56;;;18.05;66.59
43125;BME280;49182;50.788;7.318;2022-08-23T00:07:34;100603.88;;;17.93;66.51
43125;BME280;49182;50.788;7.318;2022-08-23T00:10:07;100612.22;;;17.90;66.59
43125;BME280;49182;50.788;7.318;2022-08-23T00:12:33;100614.63;;;17.85;66.99
43125;BME280;49182;50.788;7.318;2022-08-23T00:15:00;100615.19;;;17.81;66.67
43125;BME280;49182;50.788;7.318;2022-08-23T00:17:27;100613.50;;;17.79;67.63
43125;BME280;49182;50.788;7.318;2022-08-23T00:20:00;100610.09;;;17.71;67.88
43125;BME280;49182;50.788;7.318;2022-08-23T00:22:26;100609.34;;;17.62;67.71
43125;BME280;49182;50.788;7.318;2022-08-23T00:24:53;100620.88;;;17.55;68.03
43125;BME280;49182;50.788;7.318;2022-08-23T00:27:21;100620.13;;;17.46;67.93
43125;BME280;49182;50.788;7.318;2022-08-23T00:29:50;100618.75;;;17.50;68.75
43125;BME280;49182;50.788;7.318;2022-08-23T00:32:20;100627.28;;;17.46;68.53
43125;BME280;49182;50.788;7.318;2022-08-23T00:34:48;100624.69;;;17.37;68.43
43125;BME280;49182;50.788;7.318;2022-08-23T00:37:15;100617.38;;;17.31;68.48
43125;BME280;49182;50.788;7.318;2022-08-23T00:39:42;100619.09;;;17.24;68.42
43125;BME280;49182;50.788;7.318;2022-08-23T00:42:12;100617.97;;;17.19;68.72
43125;BME280;49182;50.788;7.318;2022-08-23T00:44:41;100618.31;;;17.16;68.93
43125;BME280;49182;50.788;7.318;2022-08-23T00:47:09;100600.03;;;17.05;69.44
43125;BME280;49182;50.788;7.318;2022-08-23T00:49:39;100603.91;;;17.02;69.55
43125;BME280;49182;50.788;7.318;2022-08-23T00:52:12;100608.44;;;16.93;69.76
43125;BME280;49182;50.788;7.318;2022-08-23T00:54:43;100597.47;;;16.88;70.19
43125;BME280;49182;50.788;7.318;2022-08-23T00:57:13;100609.69;;;16.83;70.30
43125;BME280;49182;50.788;7.318;2022-08-23T00:59:42;100602.41;;;16.69;70.22
43125;BME280;49182;50.788;7.318;2022-08-23T01:02:09;100613.91;;;16.69;70.42
43125;BME280;49182;50.788;7.318;2022-08-23T01:09:00;100618.09;;;16.55;71.65
43125;BME280;49182;50.788;7.318;2022-08-23T01:11:55;100609.66;;;16.44;72.28
43125;BME280;49182;50.788;7.318;2022-08-23T01:14:27;100615.97;;;16.43;72.58
43125;BME280;49182;50.788;7.318;2022-08-23T01:17:05;100620.53;;;16.34;72.73
43125;BME280;49182;50.788;7.318;2022-08-23T01:19:36;100616.88;;;16.27;72.59
43125;BME280;49182;50.788;7.318;2022-08-23T01:22:08;100625.03;;;16.26;73.19
43125;BME280;49182;50.788;7.318;2022-08-23T01:24:39;100615.72;;;16.22;73.30
43125;BME280;49182;50.788;7.318;2022-08-23T01:27:27;100628.72;;;16.16;73.64
43125;BME280;49182;50.788;7.318;2022-08-23T01:29:57;100609.09;;;16.01;74.28
43125;BME280;49182;50.788;7.318;2022-08-23T01:32:24;100628.41;;;16.03;73.83
43125;BME280;49182;50.788;7.318;2022-08-23T01:34:51;100628.41;;;15.95;74.35
43125;BME280;49182;50.788;7.318;2022-08-23T01:37:19;100629.25;;;15.88;74.64
43125;BME280;49182;50.788;7.318;2022-08-23T01:39:48;100622.44;;;15.77;75.24
43125;BME280;49182;50.788;7.318;2022-08-23T01:42:15;100630.91;;;15.81;75.70
43125;BME280;49182;50.788;7.318;2022-08-23T01:44:41;100632.25;;;15.76;75.56
43125;BME280;49182;50.788;7.318;2022-08-23T01:47:08;100634.44;;;15.73;75.59
43125;BME280;49182;50.788;7.318;2022-08-23T01:49:35;100632.09;;;15.70;75.65
43125;BME280;49182;50.788;7.318;2022-08-23T01:52:02;100637.94;;;15.65;75.87
43125;BME280;49182;50.788;7.318;2022-08-23T01:54:29;100634.75;;;15.62;76.21
43125;BME280;49182;50.788;7.318;2022-08-23T01:56:58;100631.59;;;15.58;76.18
43125;BME280;49182;50.788;7.318;2022-08-23T01:59:25;100638.75;;;15.58;76.51
43125;BME280;49182;50.788;7.318;2022-08-23T02:01:53;100646.25;;;15.54;76.83
43125;BME280;49182;50.788;7.318;2022-08-23T02:04:20;100642.03;;;15.52;76.92
43125;BME280;49182;50.788;7.318;2022-08-23T02:06:47;100639.53;;;15.50;77.17
43125;BME280;49182;50.788;7.318;2022-08-23T02:09:18;100635.88;;;15.43;76.93
43125;BME280;49182;50.788;7.318;2022-08-23T02:11:46;100633.56;;;15.40;76.97
43125;BME280;49182;50.788;7.318;2022-08-23T02:14:16;100640.19;;;15.44;76.69
43125;BME280;49182;50.788;7.318;2022-08-23T02:16:51;100652.50;;;15.37;76.27
43125;BME280;49182;50.788;7.318;2022-08-23T02:19:31;100640.03;;;15.29;76.48
43125;BME280;49182;50.788;7.318;2022-08-23T02:21:57;100642.03;;;15.27;76.40
43125;BME280;49182;50.788;7.318;2022-08-23T02:24:25;100648.47;;;15.25;76.45
43125;BME280;49182;50.788;7.318;2022-08-23T02:26:54;100643.16;;;15.25;76.95
43125;BME280;49182;50.788;7.318;2022-08-23T02:29:26;100647.00;;;15.22;77.19
43125;BME280;49182;50.788;7.318;2022-08-23T02:31:53;100641.81;;;15.13;77.10
43125;BME280;49182;50.788;7.318;2022-08-23T02:34:21;100651.47;;;15.14;77.18
43125;BME280;49182;50.788;7.318;2022-08-23T02:37:07;100639.16;;;15.05;78.05
43125;BME280;49182;50.788;7.318;2022-08-23T02:39:34;100650.97;;;15.10;78.28
43125;BME280;49182;50.788;7.318;2022-08-23T02:42:05;100652.44;;;15.05;78.33
43125;BME280;49182;50.788;7.318;2022-08-23T02:44:35;100639.63;;;14.92;78.29
43125;BME280;49182;50.788;7.318;2022-08-23T02:47:03;100653.41;;;14.95;78.46
43125;BME280;49182;50.788;7.318;2022-08-23T02:49:30;100662.38;;;14.94;78.41
43125;BME280;49182;50.788;7.318;2022-08-23T02:51:56;100653.41;;;14.95;78.58
43125;BME280;49182;50.788;7.318;2022-08-23T02:54:23;100662.38;;;14.94;78.84
43125;BME280;49182;50.788;7.318;2022-08-23T02:56:50;100661.72;;;14.92;79.05
43125;BME280;49182;50.788;7.318;2022-08-23T02:59:17;100661.88;;;14.91;79.11
43125;BME280;49182;50.788;7.318;2022-08-23T03:01:46;100654.69;;;14.83;78.97
43125;BME280;49182;50.788;7.318;2022-08-23T03:04:23;100659.03;;;14.84;78.47
43125;BME280;49182;50.788;7.318;2022-08-23T03:06:49;100666.16;;;14.84;78.35
43125;BME280;49182;50.788;7.318;2022-08-23T03:09:16;100660.84;;;14.84;78.57
43125;BME280;49182;50.788;7.318;2022-08-23T03:11:44;100663.16;;;14.79;78.35
43125;BME280;49182;50.788;7.318;2022-08-23T03:14:12;100662.97;;;14.72;78.35
43125;BME280;49182;50.788;7.318;2022-08-23T03:16:39;100644.50;;;14.63;78.71
43125;BME280;49182;50.788;7.318;2022-08-23T03:19:08;100665.56;;;14.64;78.94
43125;BME280;49182;50.788;7.318;2022-08-23T03:21:35;100654.28;;;14.62;78.93
43125;BME280;49182;50.788;7.318;2022-08-23T03:24:03;100662.72;;;14.57;79.49
43125;BME280;49182;50.788;7.318;2022-08-23T03:26:36;100647.59;;;14.50;80.13
43125;BME280;49182;50.788;7.318;2022-08-23T03:29:03;100661.88;;;14.57;80.59
43125;BME280;49182;50.788;7.318;2022-08-23T03:31:39;100652.84;;;14.42;80.14
43125;BME280;49182;50.788;7.318;2022-08-23T03:34:11;100673.31;;;14.49;79.86
43125;BME280;49182;50.788;7.318;2022-08-23T03:36:37;100670.13;;;14.46;79.56
43125;BME280;49182;50.788;7.318;2022-08-23T03:39:05;100672.13;;;14.44;79.63
43125;BME280;49182;50.788;7.318;2022-08-23T03:41:32;100660.88;;;14.32;79.36
43125;BME280;49182;50.788;7.318;2022-08-23T03:43:59;100667.56;;;14.36;79.26
43125;BME280;49182;50.788;7.318;2022-08-23T03:46:28;100670.53;;;14.33;79.60
43125;BME280;49182;50.788;7.318;2022-08-23T03:49:00;100673.50;;;14.30;79.55
43125;BME280;49182;50.788;7.318;2022-08-23T03:51:35;100674.50;;;14.29;80.05
43125;BME280;49182;50.788;7.318;2022-08-23T03:54:03;100676.66;;;14.26;79.50
43125;BME280;49182;50.788;7.318;2022-08-23T03:56:31;100682.94;;;14.25;80.12
43125;BME280;49182;50.788;7.318;2022-08-23T03:59:02;100680.44;;;14.23;80.09
43125;BME280;49182;50.788;7.318;2022-08-23T04:01:29;100683.25;;;14.22;79.74
43125;BME280;49182;50.788;7.318;2022-08-23T04:03:57;100682.56;;;14.19;79.90
43125;BME280;49182;50.788;7.318;2022-08-23T04:06:24;100688.19;;;14.16;80.03
43125;BME280;49182;50.788;7.318;2022-08-23T04:08:53;100690.16;;;14.14;79.86
43125;BME280;49182;50.788;7.318;2022-08-23T04:11:21;100699.94;;;14.14;80.10
43125;BME280;49182;50.788;7.318;2022-08-23T04:14:02;100680.56;;;13.96;79.64
43125;BME280;49182;50.788;7.318;2022-08-23T04:16:29;100705.72;;;14.09;79.73
43125;BME280;49182;50.788;7.318;2022-08-23T04:18:56;100706.34;;;14.03;80.18
43125;BME280;49182;50.788;7.318;2022-08-23T04:21:24;100709.16;;;14.02;80.15
43125;BME280;49182;50.788;7.318;2022-08-23T04:23:52;100692.13;;;13.87;80.68
43125;BME280;49182;50.788;7.318;2022-08-23T04:26:19;100724.19;;;13.93;80.44
43125;BME280;49182;50.788;7.318;2022-08-23T04:28:46;100726.16;;;13.91;80.39
43125;BME280;49182;50.788;7.318;2022-08-23T04:31:13;100723.66;;;13.90;81.07
43125;BME280;49182;50.788;7.318;2022-08-23T04:33:43;100733.75;;;13.86;81.01
43125;BME280;49182;50.788;7.318;2022-08-23T04:36:14;100725.63;;;13.88;80.79
43125;BME280;49182;50.788;7.318;2022-08-23T04:38:40;100736.53;;;13.85;80.77
43125;BME280;49182;50.788;7.318;2022-08-23T04:41:10;100730.41;;;13.84;81.08
43125;BME280;49182;50.788;7.318;2022-08-23T04:43:38;100732.53;;;13.81;80.79
43125;BME280;49182;50.788;7.318;2022-08-23T04:46:05;100738.69;;;13.81;80.97
43125;BME280;49182;50.788;7.318;2022-08-23T04:48:34;100723.50;;;13.73;81.16
43125;BME280;49182;50.788;7.318;2022-08-23T04:51:01;100731.31;;;13.75;81.09
43125;BME280;49182;50.788;7.318;2022-08-23T04:53:32;100748.97;;;13.84;80.83
43125;BME280;49182;50.788;7.318;2022-08-23T04:56:20;100746.66;;;13.81;81.24
43125;BME280;49182;50.788;7.318;2022-08-23T04:58:47;100754.44;;;13.83;81.20
43125;BME280;49182;50.788;7.318;2022-08-23T05:01:13;100756.44;;;13.81;81.14
43125;BME280;49182;50.788;7.318;2022-08-23T05:03:42;100759.75;;;13.83;81.27
43125;BME280;49182;50.788;7.318;2022-08-23T05:06:09;100768.41;;;13.85;81.01
43125;BME280;49182;50.788;7.318;2022-08-23T05:08:38;100766.44;;;13.87;81.26
43125;BME280;49182;50.788;7.318;2022-08-23T05:11:08;100774.78;;;13.92;81.28
43125;BME280;49182;50.788;7.318;2022-08-23T05:13:37;100769.97;;;13.95;80.84
43125;BME280;49182;50.788;7.318;2022-08-23T05:16:06;100769.19;;;13.95;81.49
43125;BME280;49182;50.788;7.318;2022-08-23T05:18:38;100777.66;;;13.98;81.71
43125;BME280;49182;50.788;7.318;2022-08-23T05:21:05;100783.66;;;14.00;82.15
43125;BME280;49182;50.788;7.318;2022-08-23T05:23:32;100762.00;;;13.95;81.68
43125;BME280;49182;50.788;7.318;2022-08-23T05:26:03;100781.06;;;14.08;81.47
43125;BME280;49182;50.788;7.318;2022-08-23T05:28:34;100778.41;;;14.08;81.25
43125;BME280;49182;50.788;7.318;2022-08-23T05:31:06;100783.56;;;14.10;81.48
43125;BME280;49182;50.788;7.318;2022-08-23T05:33:44;100781.59;;;14.12;81.88
43125;BME280;49182;50.788;7.318;2022-08-23T05:36:14;100784.78;;;14.15;81.84
43125;BME280;49182;50.788;7.318;2022-08-23T05:38:42;100787.66;;;14.22;81.56
43125;BME280;49182;50.788;7.318;2022-08-23T05:41:11;100781.56;;;14.30;80.94
43125;BME280;49182;50.788;7.318;2022-08-23T05:43:39;100788.09;;;14.35;80.82
43125;BME280;49182;50.788;7.318;2022-08-23T05:46:10;100786.38;;;14.44;80.61
43125;BME280;49182;50.788;7.318;2022-08-23T05:48:44;100791.88;;;14.50;80.98
43125;BME280;49182;50.788;7.318;2022-08-23T05:51:16;100787.94;;;14.54;80.93
43125;BME280;49182;50.788;7.318;2022-08-23T05:53:44;100790.81;;;14.61;81.04
43125;BME280;49182;50.788;7.318;2022-08-23T05:56:13;100787.81;;;14.64;81.16
43125;BME280;49182;50.788;7.318;2022-08-23T05:58:41;100794.25;;;14.79;81.21
43125;BME280;49182;50.788;7.318;2022-08-23T06:01:10;100806.28;;;14.91;80.97
43125;BME280;49182;50.788;7.318;2022-08-23T06:03:38;100802.50;;;15.02;80.11
43125;BME280;49182;50.788;7.318;2022-08-23T06:06:05;100804.06;;;15.13;79.61
43125;BME280;49182;50.788;7.318;2022-08-23T06:08:32;100802.44;;;15.20;79.23
43125;BME280;49182;50.788;7.318;2022-08-23T06:11:00;100789.13;;;15.20;78.71
43125;BME280;49182;50.788;7.318;2022-08-23T06:13:32;100792.19;;;15.33;78.49
43125;BME280;49182;50.788;7.318;2022-08-23T06:15:59;100805.25;;;15.52;77.65
43125;BME280;49182;50.788;7.318;2022-08-23T06:18:42;100811.09;;;15.64;77.43
43125;BME280;49182;50.788;7.318;2022-08-23T06:21:28;100814.00;;;15.78;76.80
43125;BME280;49182;50.788;7.318;2022-08-23T06:23:55;100810.00;;;15.91;76.56
43125;BME280;49182;50.788;7.318;2022-08-23T06:26:24;100808.34;;;16.06;76.17
43125;BME280;49182;50.788;7.318;2022-08-23T06:28:54;100814.56;;;16.23;76.13
43125;BME280;49182;50.788;7.318;2022-08-23T06:31:23;100816.53;;;16.37;75.75
43125;BME280;49182;50.788;7.318;2022-08-23T06:34:04;100808.03;;;16.49;75.30
43125;BME280;49182;50.788;7.318;2022-08-23T06:36:53;100808.22;;;16.72;74.30
43125;BME280;49182;50.788;7.318;2022-08-23T06:39:40;100787.03;;;16.79;73.35
43125;BME280;49182;50.788;7.318;2022-08-23T06:42:40;100809.63;;;17.07;72.77
43125;BME280;49182;50.788;7.318;2022-08-23T06:45:08;100800.59;;;17.16;72.32
43125;BME280;49182;50.788;7.318;2022-08-23T06:47:38;100812.19;;;17.39;72.01
43125;BME280;49182;50.788;7.318;2022-08-23T06:50:07;100800.47;;;17.49;71.04
43125;BME280;49182;50.788;7.318;2022-08-23T06:52:54;100817.03;;;17.75;70.61
43125;BME280;49182;50.788;7.318;2022-08-23T06:55:38;100805.13;;;17.86;70.05
43125;BME280;49182;50.788;7.318;2022-08-23T06:58:26;100810.97;;;18.12;68.96
43125;BME280;49182;50.788;7.318;2022-08-23T07:01:26;100813.16;;;18.31;68.71
43125;BME280;49182;50.788;7.318;2022-08-23T07:04:43;100813.19;;;18.46;68.57
43125;BME280;49182;50.788;7.318;2022-08-23T07:07:28;100798.06;;;18.53;68.27
43125;BME280;49182;50.788;7.318;2022-08-23T07:10:10;100807.38;;;18.80;68.00
43125;BME280;49182;50.788;7.318;2022-08-23T07:12:38;100811.44;;;18.90;67.15
43125;BME280;49182;50.788;7.318;2022-08-23T07:15:06;100816.09;;;19.11;66.20
43125;BME280;49182;50.788;7.318;2022-08-23T07:17:33;100818.38;;;19.29;65.96
43125;BME280;49182;50.788;7.318;2022-08-23T07:20:01;100819.22;;;19.44;65.48
43125;BME280;49182;50.788;7.318;2022-08-23T07:22:30;100818.63;;;19.63;65.30
43125;BME280;49182;50.788;7.318;2022-08-23T07:24:58;100804.47;;;19.69;64.66
43125;BME280;49182;50.788;7.318;2022-08-23T07:27:25;100827.69;;;19.98;62.77
43125;BME280;49182;50.788;7.318;2022-08-23T07:29:59;100824.09;;;20.12;59.97
43125;BME280;49182;50.788;7.318;2022-08-23T07:32:25;100807.06;;;20.20;59.08
43125;BME280;49182;50.788;7.318;2022-08-23T07:34:55;100822.44;;;20.47;59.36
43125;BME280;49182;50.788;7.318;2022-08-23T07:37:22;100827.97;;;20.67;58.10
43125;BME280;49182;50.788;7.318;2022-08-23T07:39:51;100832.25;;;20.89;55.20
43125;BME280;49182;50.788;7.318;2022-08-23T07:42:24;100830.25;;;21.05;54.91
43125;BME280;49182;50.788;7.318;2022-08-23T07:44:53;100838.88;;;21.21;53.71
43125;BME280;49182;50.788;7.318;2022-08-23T07:47:23;100817.63;;;21.26;52.06
43125;BME280;49182;50.788;7.318;2022-08-23T07:49:53;100833.03;;;21.52;51.63
43125;BME280;49182;50.788;7.318;2022-08-23T07:52:19;100837.44;;;21.73;52.21
43125;BME280;49182;50.788;7.318;2022-08-23T07:54:46;100837.94;;;21.90;51.67
43125;BME280;49182;50.788;7.318;2022-08-23T07:57:34;100841.91;;;22.00;48.50
43125;BME280;49182;50.788;7.318;2022-08-23T08:00:12;100834.91;;;22.12;48.43
43125;BME280;49182;50.788;7.318;2022-08-23T08:02:46;100851.28;;;22.31;47.74
43125;BME280;49182;50.788;7.318;2022-08-23T08:05:20;100845.72;;;22.52;47.51
43125;BME280;49182;50.788;7.318;2022-08-23T08:07:49;100841.59;;;22.69;46.06
43125;BME280;49182;50.788;7.318;2022-08-23T08:10:16;100843.66;;;22.93;46.02
43125;BME280;49182;50.788;7.318;2022-08-23T08:12:45;100843.22;;;23.10;44.77
43125;BME280;49182;50.788;7.318;2022-08-23T08:15:16;100843.84;;;23.12;45.00
43125;BME280;49182;50.788;7.318;2022-08-23T08:17:47;100840.28;;;23.24;43.88
43125;BME280;49182;50.788;7.318;2022-08-23T08:20:14;100802.81;;;23.10;44.03
43125;BME280;49182;50.788;7.318;2022-08-23T08:23:00;100841.91;;;23.38;44.14
43125;BME280;49182;50.788;7.318;2022-08-23T08:25:36;100850.19;;;23.37;42.96
43125;BME280;49182;50.788;7.318;2022-08-23T08:28:07;100834.00;;;23.44;43.12
43125;BME280;49182;50.788;7.318;2022-08-23T08:30:41;100835.63;;;23.58;43.53
43125;BME280;49182;50.788;7.318;2022-08-23T08:33:08;100835.97;;;23.74;43.04
43125;BME280;49182;50.788;7.318;2022-08-23T08:35:35;100843.50;;;24.04;42.27
43125;BME280;49182;50.788;7.318;2022-08-23T08:38:02;100833.88;;;24.21;41.39
43125;BME280;49182;50.788;7.318;2022-08-23T08:40:33;100831.19;;;24.14;41.30
43125;BME280;49182;50.788;7.318;2022-08-23T08:43:27;100836.81;;;24.44;41.02
43125;BME280;49182;50.788;7.318;2022-08-23T08:46:02;100835.88;;;24.57;41.15
43125;BME280;49182;50.788;7.318;2022-08-23T08:48:38;100836.00;;;24.69;41.19
43125;BME280;49182;50.788;7.318;2022-08-23T08:51:17;100826.94;;;24.81;40.42
43125;BME280;49182;50.788;7.318;2022-08-23T08:53:46;100840.75;;;24.98;40.43
43125;BME280;49182;50.788;7.318;2022-08-23T08:56:29;100835.84;;;25.07;40.56
43125;BME280;49182;50.788;7.318;2022-08-23T08:59:27;100842.84;;;25.14;40.56
43125;BME280;49182;50.788;7.318;2022-08-23T09:01:57;100839.66;;;25.24;40.27
43125;BME280;49182;50.788;7.318;2022-08-23T09:04:33;100837.22;;;25.34;39.56
43125;BME280;49182;50.788;7.318;2022-08-23T09:07:05;100843.53;;;25.46;39.21
43125;BME280;49182;50.788;7.318;2022-08-23T09:10:02;100838.63;;;25.61;38.52
43125;BME280;49182;50.788;7.318;2022-08-23T09:12:38;100837.00;;;25.72;39.21
43125;BME280;49182;50.788;7.318;2022-08-23T09:15:20;100842.00;;;25.87;39.45
43125;BME280;49182;50.788;7.318;2022-08-23T09:17:55;100846.13;;;25.89;38.50
43125;BME280;49182;50.788;7.318;2022-08-23T09:20:25;100831.13;;;26.05;37.50
43125;BME280;49182;50.788;7.318;2022-08-23T09:23:05;100800.88;;;25.96;37.47
43125;BME280;49182;50.788;7.318;2022-08-23T09:25:35;100843.38;;;26.37;36.68
43125;BME280;49182;50.788;7.318;2022-08-23T09:28:14;100815.91;;;26.22;37.46
43125;BME280;49182;50.788;7.318;2022-08-23T09:30:52;100826.50;;;26.24;36.97
43125;BME280;49182;50.788;7.318;2022-08-23T09:33:22;100842.22;;;26.45;36.76
43125;BME280;49182;50.788;7.318;2022-08-23T09:36:06;100841.53;;;26.61;36.99
43125;BME280;49182;50.788;7.318;2022-08-23T09:38:49;100829.75;;;26.67;36.09
43125;BME280;49182;50.788;7.318;2022-08-23T09:41:19;100835.66;;;26.76;35.92
43125;BME280;49182;50.788;7.318;2022-08-23T09:43:52;100839.66;;;26.85;36.14
43125;BME280;49182;50.788;7.318;2022-08-23T09:46:29;100835.34;;;26.95;36.35
43125;BME280;49182;50.788;7.318;2022-08-23T09:48:58;100833.53;;;27.13;36.70
43125;BME280;49182;50.788;7.318;2022-08-23T09:51:33;100829.25;;;27.28;35.38
43125;BME280;49182;50.788;7.318;2022-08-23T09:54:06;100824.63;;;27.41;35.21
43125;BME280;49182;50.788;7.318;2022-08-23T09:56:39;100815.06;;;27.50;34.63
43125;BME280;49182;50.788;7.318;2022-08-23T09:59:20;100816.13;;;27.60;34.90
43125;BME280;49182;50.788;7.318;2022-08-23T10:01:59;100806.56;;;27.69;33.90
43125;BME280;49182;50.788;7.318;2022-08-23T10:04:30;100817.59;;;27.80;33.40
43125;BME280;49182;50.788;7.318;2022-08-23T10:07:20;100822.34;;;27.72;33.28
43125;BME280;49182;50.788;7.318;2022-08-23T10:09:53;100810.31;;;27.68;33.69
43125;BME280;49182;50.788;7.318;2022-08-23T10:12:21;100811.97;;;27.69;33.92
43125;BME280;49182;50.788;7.318;2022-08-23T10:14:50;100802.47;;;27.84;33.50
43125;BME280;49182;50.788;7.318;2022-08-23T10:17:27;100804.63;;;27.98;33.50
43125;BME280;49182;50.788;7.318;2022-08-23T10:20:09;100803.34;;;28.01;33.73
43125;BME280;49182;50.788;7.318;2022-08-23T10:22:44;100802.09;;;28.08;34.32
43125;BME280;49182;50.788;7.318;2022-08-23T10:25:31;100793.22;;;28.13;33.72
43125;BME280;49182;50.788;7.318;2022-08-23T10:28:05;100797.25;;;28.39;33.21
43125;BME280;49182;50.788;7.318;2022-08-23T10:30:43;100800.81;;;28.28;31.99
43125;BME280;49182;50.788;7.318;2022-08-23T10:33:16;100802.22;;;28.47;32.07
43125;BME280;49182;50.788;7.318;2022-08-23T10:35:58;100799.19;;;28.60;31.80
43125;BME280;49182;50.788;7.318;2022-08-23T10:38:39;100800.53;;;28.74;31.95
43125;BME280;49182;50.788;7.318;2022-08-23T10:44:03;100795.66;;;29.15;31.65
43125;BME280;49182;50.788;7.318;2022-08-23T10:46:38;100800.72;;;29.28;32.06
43125;BME280;49182;50.788;7.318;2022-08-23T10:49:11;100799.53;;;29.41;31.12
43125;BME280;49182;50.788;7.318;2022-08-23T10:51:42;100789.88;;;29.50;30.55
43125;BME280;49182;50.788;7.318;2022-08-23T10:54:15;100789.53;;;29.68;29.63
43125;BME280;49182;50.788;7.318;2022-08-23T10:56:42;100797.94;;;29.66;29.71
43125;BME280;49182;50.788;7.318;2022-08-23T10:59:20;100788.13;;;29.65;30.37
43125;BME280;49182;50.788;7.318;2022-08-23T11:01:56;100785.88;;;29.84;30.20
43125;BME280;49182;50.788;7.318;2022-08-23T11:04:32;100784.22;;;30.05;28.82
43125;BME280;49182;50.788;7.318;2022-08-23T11:07:26;100778.25;;;30.13;27.97
43125;BME280;49182;50.788;7.318;2022-08-23T11:10:05;100783.88;;;30.01;28.24
43125;BME280;49182;50.788;7.318;2022-08-23T11:12:53;100775.16;;;29.99;28.42
43125;BME280;49182;50.788;7.318;2022-08-23T11:18:36;100767.69;;;29.90;28.70
43125;BME280;49182;50.788;7.318;2022-08-23T11:21:09;100779.66;;;30.15;29.10
43125;BME280;49182;50.788;7.318;2022-08-23T11:24:27;100782.50;;;30.31;28.92
43125;BME280;49182;50.788;7.318;2022-08-23T11:27:04;100784.63;;;30.55;28.71
43125;BME280;49182;50.788;7.318;2022-08-23T11:29:39;100773.22;;;30.64;27.61
43125;BME280;49182;50.788;7.318;2022-08-23T11:32:36;100769.47;;;30.75;27.87
43125;BME280;49182;50.788;7.318;2022-08-23T11:35:28;100769.31;;;30.91;27.69
43125;BME280;49182;50.788;7.318;2022-08-23T11:38:00;100776.47;;;31.03;26.83
43125;BME280;49182;50.788;7.318;2022-08-23T11:40:56;100749.25;;;31.18;27.19
43125;BME280;49182;50.788;7.318;2022-08-23T11:43:29;100764.63;;;31.34;27.00
43125;BME280;49182;50.788;7.318;2022-08-23T11:46:31;100753.22;;;31.52;26.29
43125;BME280;49182;50.788;7.318;2022-08-23T11:49:24;100758.34;;;31.44;26.50
43125;BME280;49182;50.788;7.318;2022-08-23T11:52:02;100760.09;;;31.70;25.70
43125;BME280;49182;50.788;7.318;2022-08-23T11:54:56;100747.00;;;31.92;25.52
43125;BME280;49182;50.788;7.318;2022-08-23T11:57:34;100738.59;;;32.14;25.51
43125;BME280;49182;50.788;7.318;2022-08-23T12:00:18;100746.22;;;32.37;25.84
43125;BME280;49182;50.788;7.318;2022-08-23T12:02:58;100742.94;;;32.30;25.08
43125;BME280;49182;50.788;7.318;2022-08-23T12:05:40;100739.31;;;32.60;24.92
43125;BME280;49182;50.788;7.318;2022-08-23T12:08:32;100738.03;;;32.17;24.43
43125;BME280;49182;50.788;7.318;2022-08-23T12:11:12;100725.97;;;32.43;25.15
43125;BME280;49182;50.788;7.318;2022-08-23T12:13:55;100738.56;;;32.39;24.69
43125;BME280;49182;50.788;7.318;2022-08-23T12:16:34;100730.59;;;32.53;24.53
43125;BME280;49182;50.788;7.318;2022-08-23T12:19:08;100724.03;;;32.64;24.81
43125;BME280;49182;50.788;7.318;2022-08-23T12:21:45;100726.47;;;32.61;24.67
43125;BME280;49182;50.788;7.318;2022-08-23T12:24:17;100718.28;;;32.76;24.38
43125;BME280;49182;50.788;7.318;2022-08-23T12:26:52;100724.22;;;32.93;24.03
43125;BME280;49182;50.788;7.318;2022-08-23T12:29:27;100718.50;;;32.84;24.21
43125;BME280;49182;50.788;7.318;2022-08-23T12:32:05;100721.50;;;32.88;24.53
43125;BME280;49182;50.788;7.318;2022-08-23T12:34:40;100720.44;;;32.79;23.84
43125;BME280;49182;50.788;7.318;2022-08-23T12:37:16;100716.84;;;32.88;23.61
43125;BME280;49182;50.788;7.318;2022-08-23T12:39:49;100710.28;;;32.84;23.48
43125;BME280;49182;50.788;7.318;2022-08-23T12:42:23;100713.00;;;32.95;23.62
43125;BME280;49182;50.788;7.318;2022-08-23T12:45:00;100720.31;;;33.14;23.30
43125;BME280;49182;50.788;7.318;2022-08-23T12:47:27;100712.25;;;33.38;23.54
43125;BME280;49182;50.788;7.318;2022-08-23T12:49:57;100716.00;;;33.52;23.21
43125;BME280;49182;50.788;7.318;2022-08-23T12:52:26;100713.66;;;33.80;22.64
43125;BME280;49182;50.788;7.318;2022-08-23T12:54:53;100705.97;;;33.82;22.99
43125;BME280;49182;50.788;7.318;2022-08-23T12:57:29;100705.97;;;33.77;22.41
43125;BME280;49182;50.788;7.318;2022-08-23T13:00:14;100710.69;;;33.66;22.77
43125;BME280;49182;50.788;7.318;2022-08-23T13:02:48;100712.06;;;33.68;23.00
43125;BME280;49182;50.788;7.318;2022-08-23T13:05:28;100698.25;;;33.45;23.22
43125;BME280;49182;50.788;7.318;2022-08-23T13:07:56;100713.53;;;33.56;22.65
43125;BME280;49182;50.788;7.318;2022-08-23T13:10:23;100713.03;;;33.88;22.71
43125;BME280;49182;50.788;7.318;2022-08-23T13:12:52;100714.06;;;34.26;22.41
43125;BME280;49182;50.788;7.318;2022-08-23T13:15:46;100714.53;;;34.04;21.69
43125;BME280;49182;50.788;7.318;2022-08-23T13:18:25;100709.00;;;33.80;21.75
43125;BME280;49182;50.788;7.318;2022-08-23T13:21:17;100712.38;;;33.62;22.25
43125;BME280;49182;50.788;7.318;2022-08-23T13:23:45;100710.69;;;33.71;22.00
43125;BME280;49182;50.788;7.318;2022-08-23T13:26:28;100706.03;;;33.66;22.61
43125;BME280;49182;50.788;7.318;2022-08-23T13:29:21;100703.75;;;33.40;22.75
43125;BME280;49182;50.788;7.318;2022-08-23T13:31:56;100705.38;;;33.41;22.52
43125;BME280;49182;50.788;7.318;2022-08-23T13:34:37;100705.69;;;33.39;22.45